Time;durP1;ratioP1;P1;durP2;ratioP2;P2;SDS_P1;SDS_P2;PMS_P1;PMS_P2;Temp;Humidity;BMP_temperature;BMP_pressure;BME280_temperature;BME280_humidity;BME280_pressure;Samples;Min_cycle;Max_cycle;Signal;HPM_P1;HPM_P2
2021/10/20 00:00:26;;;;;;;5.40;3.17;;;17.80;81.50;;;;;;5093964;28;20174;-81
2021/10/20 00:02:53;;;;;;;5.40;3.03;;;17.70;82.40;;;;;;5097590;28;20577;-83
2021/10/20 00:05:18;;;;;;;5.40;3.07;;;17.70;82.50;;;;;;5099194;28;20165;-81
2021/10/20 00:07:45;;;;;;;4.93;3.10;;;17.70;83.00;;;;;;5094365;28;20163;-82
2021/10/20 00:10:12;;;;;;;5.10;2.80;;;17.70;83.70;;;;;;5075340;28;20188;-84
2021/10/20 00:12:38;;;;;;;8.03;3.03;;;17.60;83.70;;;;;;5093136;28;20165;-82
2021/10/20 00:15:07;;;;;;;3.93;3.03;;;17.60;83.50;;;;;;5092987;28;20203;-82
2021/10/20 00:17:33;;;;;;;5.33;3.53;;;17.60;83.40;;;;;;5093107;28;20222;-84
2021/10/20 00:20:07;;;;;;;5.17;3.37;;;17.60;83.90;;;;;;5093200;28;20168;-81
2021/10/20 00:22:34;;;;;;;7.43;3.47;;;17.50;85.20;;;;;;5092713;28;20170;-82
2021/10/20 00:25:00;;;;;;;5.67;3.20;;;17.50;85.50;;;;;;5091921;28;20614;-81
2021/10/20 00:27:26;;;;;;;3.83;3.07;;;17.50;85.70;;;;;;5101180;28;20198;-79
2021/10/20 00:29:53;;;;;;;3.80;2.90;;;17.50;84.90;;;;;;5106656;28;20642;-80
2021/10/20 00:32:19;;;;;;;6.57;3.50;;;17.60;84.60;;;;;;5094497;28;20164;-80
2021/10/20 00:34:44;;;;;;;5.73;3.10;;;17.60;84.90;;;;;;5095760;28;20198;-82
2021/10/20 00:37:10;;;;;;;5.27;3.40;;;17.50;86.10;;;;;;5114302;28;20183;-80
2021/10/20 00:39:37;;;;;;;5.80;3.60;;;17.50;87.60;;;;;;5098983;28;20305;-81
2021/10/20 00:42:06;;;;;;;6.47;3.30;;;17.40;87.10;;;;;;5093422;28;20160;-83
2021/10/20 00:44:52;;;;;;;6.17;3.23;;;17.50;87.20;;;;;;5093431;28;20247;-81
2021/10/20 00:47:19;;;;;;;4.27;3.00;;;17.50;87.00;;;;;;5075394;28;20624;-83
2021/10/20 00:49:45;;;;;;;4.93;3.23;;;17.40;88.10;;;;;;5101146;28;20697;-81
2021/10/20 00:52:11;;;;;;;5.03;3.40;;;17.40;88.50;;;;;;5106990;28;20188;-82
2021/10/20 00:54:38;;;;;;;6.53;3.20;;;17.50;87.90;;;;;;5081522;28;20216;-84
2021/10/20 00:57:05;;;;;;;6.50;3.13;;;17.50;87.80;;;;;;5075144;28;20167;-82
2021/10/20 00:59:32;;;;;;;7.53;3.43;;;17.40;88.10;;;;;;5091842;28;20596;-82
2021/10/20 01:01:58;;;;;;;4.20;3.27;;;17.70;87.20;;;;;;5093147;28;20209;-81
2021/10/20 01:04:24;;;;;;;6.57;3.70;;;17.60;87.10;;;;;;5091846;28;20183;-85
2021/10/20 01:06:51;;;;;;;5.93;3.63;;;17.50;87.50;;;;;;5093931;28;20259;-82
2021/10/20 01:09:16;;;;;;;5.37;3.37;;;17.50;88.40;;;;;;5097359;28;20231;-85
2021/10/20 01:11:42;;;;;;;5.87;3.37;;;17.50;89.70;;;;;;5096728;28;20626;-85
2021/10/20 01:14:08;;;;;;;4.77;3.60;;;17.40;89.30;;;;;;5096801;28;20211;-85
2021/10/20 01:16:34;;;;;;;4.23;3.10;;;17.50;89.00;;;;;;5078471;28;20611;-85
2021/10/20 01:18:59;;;;;;;4.53;3.17;;;17.50;89.30;;;;;;5096731;28;20631;-82
2021/10/20 01:21:25;;;;;;;4.90;3.43;;;17.40;90.10;;;;;;5096497;28;20169;-83
2021/10/20 01:23:51;;;;;;;5.83;3.80;;;17.40;90.30;;;;;;5096749;28;20643;-83
2021/10/20 01:26:17;;;;;;;5.10;3.50;;;17.30;90.60;;;;;;5096434;28;20516;-84
2021/10/20 01:28:44;;;;;;;5.07;3.50;;;17.50;90.80;;;;;;5078264;28;20192;-82
2021/10/20 01:31:10;;;;;;;6.67;3.53;;;17.30;90.80;;;;;;5095773;28;20167;-82
2021/10/20 01:33:36;;;;;;;6.07;3.63;;;17.30;90.70;;;;;;5096454;28;20208;-81
2021/10/20 01:36:02;;;;;;;6.43;3.30;;;17.30;90.90;;;;;;5097013;28;20171;-80
2021/10/20 01:38:28;;;;;;;4.77;3.63;;;17.30;91.10;;;;;;5095181;28;20177;-82
2021/10/20 01:40:53;;;;;;;5.37;3.97;;;17.40;91.10;;;;;;5095815;28;20163;-81
2021/10/20 01:43:19;;;;;;;5.97;3.60;;;17.30;90.90;;;;;;5096437;28;20527;-85
2021/10/20 01:45:45;;;;;;;5.33;3.63;;;17.40;90.80;;;;;;5096291;28;20844;-83
2021/10/20 01:48:11;;;;;;;4.37;3.43;;;17.40;90.40;;;;;;5096846;28;20168;-82
2021/10/20 01:50:37;;;;;;;6.37;3.33;;;17.40;90.40;;;;;;5096327;28;20173;-84
2021/10/20 01:53:03;;;;;;;5.13;3.70;;;17.40;90.40;;;;;;5098996;28;20660;-84
2021/10/20 01:55:28;;;;;;;4.40;3.57;;;17.40;90.40;;;;;;5098955;28;20243;-83
2021/10/20 01:57:54;;;;;;;8.47;3.97;;;17.50;90.20;;;;;;5080968;28;20183;-83
2021/10/20 02:00:20;;;;;;;5.23;3.27;;;17.60;88.80;;;;;;5096348;28;20171;-81
2021/10/20 02:02:46;;;;;;;5.37;3.03;;;17.60;88.90;;;;;;5093871;28;20274;-82
2021/10/20 02:05:13;;;;;;;5.73;3.30;;;17.60;89.60;;;;;;5095530;28;20576;-81
2021/10/20 02:07:39;;;;;;;5.27;3.40;;;17.60;90.00;;;;;;5095900;28;20167;-82
2021/10/20 02:10:13;;;;;;;5.30;3.47;;;17.50;90.10;;;;;;5095799;28;20168;-83
2021/10/20 02:12:39;;;;;;;5.27;3.63;;;17.50;90.20;;;;;;5095407;28;20169;-83
2021/10/20 02:15:06;;;;;;;4.13;3.23;;;17.50;90.40;;;;;;5077213;28;20208;-82
2021/10/20 02:17:31;;;;;;;4.10;3.03;;;17.50;90.30;;;;;;5094798;28;20651;-82
2021/10/20 02:19:57;;;;;;;6.90;3.40;;;17.60;90.30;;;;;;5095280;28;20202;-81
2021/10/20 02:22:23;;;;;;;4.77;3.40;;;17.50;90.20;;;;;;5093791;28;20639;-81
2021/10/20 02:24:49;;;;;;;5.27;3.50;;;17.50;90.50;;;;;;5094665;28;20176;-81
2021/10/20 02:27:14;;;;;;;4.97;3.70;;;17.50;90.30;;;;;;5093735;28;20231;-83
2021/10/20 02:29:40;;;;;;;4.47;3.33;;;17.60;89.70;;;;;;5096241;28;20214;-83
2021/10/20 02:32:07;;;;;;;6.13;4.00;;;17.60;89.00;;;;;;5095129;28;20184;-81
2021/10/20 02:34:33;;;;;;;5.97;3.10;;;17.50;90.00;;;;;;5095984;28;20206;-81
2021/10/20 02:36:59;;;;;;;4.63;3.50;;;17.50;90.30;;;;;;5095828;28;20164;-80
2021/10/20 02:39:25;;;;;;;4.90;3.77;;;17.40;90.70;;;;;;5102366;28;20180;-81
2021/10/20 02:41:50;;;;;;;5.63;3.63;;;17.50;90.60;;;;;;5098498;28;20210;-82
2021/10/20 02:44:17;;;;;;;4.50;3.80;;;17.40;90.60;;;;;;5097156;28;20177;-83
2021/10/20 02:46:44;;;;;;;6.80;3.73;;;17.40;90.90;;;;;;5096634;28;20190;-82
2021/10/20 02:49:10;;;;;;;6.30;4.07;;;17.50;90.80;;;;;;5109205;28;20171;-79
2021/10/20 02:51:35;;;;;;;8.53;3.83;;;17.50;90.50;;;;;;5113367;28;20185;-82
2021/10/20 02:54:05;;;;;;;4.67;3.40;;;17.60;90.10;;;;;;5113348;28;20210;-82
2021/10/20 02:56:33;;;;;;;5.43;3.87;;;17.60;89.00;;;;;;5116326;28;20166;-81
2021/10/20 02:59:01;;;;;;;4.43;3.40;;;17.70;90.00;;;;;;5114783;28;20265;-81
2021/10/20 03:01:26;;;;;;;5.57;3.60;;;17.50;90.40;;;;;;5116684;28;20179;-80
2021/10/20 03:03:52;;;;;;;5.20;4.00;;;17.50;90.80;;;;;;5094411;28;20243;-81
2021/10/20 03:06:21;;;;;;;6.40;3.53;;;17.40;90.90;;;;;;5100143;28;20573;-80
2021/10/20 03:08:48;;;;;;;4.83;4.07;;;17.50;90.70;;;;;;5082095;28;20210;-81
2021/10/20 03:11:17;;;;;;;5.03;4.03;;;17.50;90.70;;;;;;5095397;28;20181;-80
2021/10/20 03:13:42;;;;;;;8.83;3.93;;;17.30;91.40;;;;;;5095219;28;20241;-81
2021/10/20 03:16:08;;;;;;;5.97;4.10;;;17.40;91.50;;;;;;5094730;28;20654;-82
2021/10/20 03:18:34;;;;;;;6.57;4.13;;;17.40;91.50;;;;;;5076262;28;20643;-81
2021/10/20 03:21:00;;;;;;;4.53;3.70;;;17.40;91.50;;;;;;5094262;28;20167;-80
2021/10/20 03:23:26;;;;;;;6.67;3.90;;;17.40;91.40;;;;;;5094442;28;20168;-80
2021/10/20 03:25:51;;;;;;;7.93;4.57;;;17.40;91.00;;;;;;5094132;28;20178;-81
2021/10/20 03:28:17;;;;;;;5.50;4.20;;;17.40;91.20;;;;;;5095823;28;20398;-81
2021/10/20 03:30:43;;;;;;;8.37;4.30;;;17.40;91.20;;;;;;5102042;28;20527;-81
2021/10/20 03:33:09;;;;;;;5.80;4.30;;;17.40;91.30;;;;;;5083781;28;20706;-80
2021/10/20 03:35:35;;;;;;;7.00;4.10;;;17.30;91.50;;;;;;5094961;28;20664;-81
2021/10/20 03:38:00;;;;;;;5.53;3.90;;;17.30;91.70;;;;;;5094125;28;20178;-80
2021/10/20 03:40:26;;;;;;;6.83;3.87;;;17.40;91.60;;;;;;5096310;28;20310;-81
2021/10/20 03:42:52;;;;;;;6.77;4.10;;;17.40;91.50;;;;;;5095140;28;20177;-81
2021/10/20 03:45:17;;;;;;;7.23;4.30;;;17.40;91.40;;;;;;5077339;28;20286;-81
2021/10/20 03:47:44;;;;;;;7.07;4.60;;;17.30;91.80;;;;;;5076255;28;20654;-80
2021/10/20 03:50:10;;;;;;;6.43;4.17;;;17.30;92.00;;;;;;5093485;28;20168;-81
2021/10/20 03:52:37;;;;;;;6.40;4.30;;;17.10;92.30;;;;;;5092333;28;20194;-81
2021/10/20 03:55:05;;;;;;;7.57;4.30;;;17.20;92.60;;;;;;5093589;28;20289;-82
2021/10/20 03:57:38;;;;;;;7.00;4.40;;;17.20;92.80;;;;;;5093497;28;20169;-81
2021/10/20 04:00:10;;;;;;;8.00;4.60;;;17.20;92.80;;;;;;5074943;28;20177;-81
2021/10/20 04:02:36;;;;;;;5.27;4.60;;;17.10;93.10;;;;;;5093066;28;20211;-81
2021/10/20 04:05:02;;;;;;;5.97;4.40;;;17.20;93.20;;;;;;5095920;28;20747;-81
2021/10/20 04:07:27;;;;;;;7.73;5.00;;;17.10;93.30;;;;;;5076838;28;20168;-80
2021/10/20 04:09:53;;;;;;;6.53;3.87;;;17.10;93.70;;;;;;5093584;28;20568;-82
2021/10/20 04:12:19;;;;;;;6.53;4.17;;;17.00;93.90;;;;;;5092432;28;20175;-83
2021/10/20 04:14:45;;;;;;;6.53;4.53;;;17.00;94.20;;;;;;5093395;28;20214;-84
2021/10/20 04:17:11;;;;;;;6.67;4.80;;;17.00;94.40;;;;;;5093854;28;20529;-81
2021/10/20 04:19:37;;;;;;;4.83;3.83;;;17.00;94.60;;;;;;5096962;28;20168;-83
2021/10/20 04:22:02;;;;;;;5.23;4.47;;;17.00;94.60;;;;;;5096023;28;20175;-81
2021/10/20 04:24:28;;;;;;;6.00;4.47;;;17.00;94.70;;;;;;5095628;28;20175;-81
2021/10/20 04:26:54;;;;;;;6.03;4.47;;;17.00;95.00;;;;;;5103094;28;20178;-80
2021/10/20 04:29:19;;;;;;;6.53;4.80;;;17.00;95.30;;;;;;5102881;28;20258;-80
2021/10/20 04:31:45;;;;;;;5.27;4.70;;;16.90;95.60;;;;;;5106620;28;20172;-79
2021/10/20 04:34:12;;;;;;;5.40;4.10;;;16.90;95.80;;;;;;5100365;28;20581;-81
2021/10/20 04:36:38;;;;;;;6.83;4.60;;;17.00;95.70;;;;;;5094851;28;20160;-84
2021/10/20 04:39:03;;;;;;;10.17;5.33;;;17.10;95.40;;;;;;5093053;28;20173;-81
2021/10/20 04:41:29;;;;;;;5.23;4.40;;;17.00;95.60;;;;;;5094990;28;20625;-81
2021/10/20 04:43:57;;;;;;;6.37;4.40;;;17.00;95.90;;;;;;5100307;28;20567;-81
2021/10/20 04:46:22;;;;;;;6.73;4.50;;;17.00;96.10;;;;;;5110386;28;20194;-81
2021/10/20 04:48:48;;;;;;;8.23;4.50;;;17.10;96.00;;;;;;5103329;28;20235;-84
2021/10/20 04:51:14;;;;;;;6.23;4.87;;;17.20;95.80;;;;;;5097924;28;20182;-83
2021/10/20 04:53:39;;;;;;;8.10;4.33;;;17.10;95.90;;;;;;5100629;28;20260;-84
2021/10/20 04:56:06;;;;;;;8.60;5.47;;;17.10;96.10;;;;;;5098628;28;20213;-83
2021/10/20 04:58:32;;;;;;;9.27;4.93;;;17.00;96.50;;;;;;5098961;28;20181;-84
2021/10/20 05:00:57;;;;;;;6.77;4.67;;;17.00;96.70;;;;;;5099624;28;20647;-83
2021/10/20 05:03:23;;;;;;;5.47;4.23;;;17.00;96.80;;;;;;5113387;28;20163;-80
2021/10/20 05:05:48;;;;;;;7.00;4.57;;;17.00;96.80;;;;;;5112867;28;20243;-81
2021/10/20 05:08:14;;;;;;;6.17;4.47;;;17.00;97.10;;;;;;5098513;28;20183;-81
2021/10/20 05:10:43;;;;;;;5.60;4.63;;;17.00;97.30;;;;;;5097390;28;20160;-81
2021/10/20 05:13:08;;;;;;;6.10;4.73;;;17.00;97.30;;;;;;5097375;28;20198;-82
2021/10/20 05:15:34;;;;;;;6.20;4.77;;;17.00;97.20;;;;;;5078592;28;20216;-81
2021/10/20 05:18:00;;;;;;;7.33;4.90;;;17.10;97.20;;;;;;5095300;28;20642;-80
2021/10/20 05:20:25;;;;;;;7.70;4.77;;;17.10;96.90;;;;;;5096642;28;20173;-81
2021/10/20 05:22:51;;;;;;;9.67;5.30;;;17.10;96.80;;;;;;5096469;28;20206;-81
2021/10/20 05:25:17;;;;;;;5.37;4.57;;;17.10;96.80;;;;;;5096357;28;20228;-83
2021/10/20 05:27:44;;;;;;;8.03;4.60;;;17.10;96.80;;;;;;5096621;28;20183;-82
2021/10/20 05:30:10;;;;;;;7.43;4.73;;;17.10;97.00;;;;;;5078117;28;20643;-81
2021/10/20 05:32:36;;;;;;;7.60;5.20;;;17.00;97.30;;;;;;5107976;28;20176;-80
2021/10/20 05:35:03;;;;;;;7.27;4.90;;;17.00;97.30;;;;;;5111611;28;20202;-82
2021/10/20 05:37:29;;;;;;;11.03;5.00;;;17.10;97.30;;;;;;5111052;28;20262;-84
2021/10/20 05:39:54;;;;;;;8.90;5.50;;;17.10;97.30;;;;;;5114094;28;20169;-81
2021/10/20 05:42:20;;;;;;;5.83;5.00;;;17.10;97.10;;;;;;5099180;28;20238;-82
2021/10/20 05:44:49;;;;;;;6.20;4.73;;;17.00;97.30;;;;;;5117141;28;20241;-80
2021/10/20 05:47:15;;;;;;;6.57;5.03;;;17.00;97.70;;;;;;5119221;27;20629;-81
2021/10/20 05:49:42;;;;;;;7.77;4.83;;;17.00;97.70;;;;;;5098150;28;20175;-81
2021/10/20 05:52:08;;;;;;;8.53;5.20;;;16.90;97.90;;;;;;5115527;28;20188;-79
2021/10/20 05:54:49;;;;;;;6.47;4.97;;;16.90;98.20;;;;;;5118325;28;20289;-83
2021/10/20 05:57:15;;;;;;;8.70;4.87;;;16.80;98.40;;;;;;5119377;28;20163;-84
2021/10/20 05:59:41;;;;;;;6.97;4.87;;;16.80;98.50;;;;;;5124885;27;20178;-83
2021/10/20 06:02:11;;;;;;;10.20;4.83;;;16.80;98.60;;;;;;5099264;28;20245;-82
2021/10/20 06:04:36;;;;;;;8.10;5.27;;;16.80;98.60;;;;;;5101694;28;20285;-81
2021/10/20 06:07:02;;;;;;;6.60;4.70;;;16.90;98.70;;;;;;5120963;28;20191;-82
2021/10/20 06:09:28;;;;;;;6.50;5.33;;;16.90;98.50;;;;;;5121271;28;20175;-83
2021/10/20 06:11:54;;;;;;;6.47;4.77;;;16.80;98.70;;;;;;5117321;27;20213;-83
2021/10/20 06:14:20;;;;;;;9.73;5.97;;;16.80;98.90;;;;;;5123604;27;20190;-80
2021/10/20 06:16:45;;;;;;;7.13;5.30;;;16.80;99.10;;;;;;5136112;27;20171;-84
2021/10/20 06:19:12;;;;;;;9.07;5.77;;;16.80;99.20;;;;;;5135600;27;20577;-83
2021/10/20 06:21:38;;;;;;;10.03;5.83;;;16.80;99.30;;;;;;5135152;27;20900;-85
2021/10/20 06:24:04;;;;;;;7.10;5.40;;;16.80;99.40;;;;;;5136010;27;20226;-79
2021/10/20 06:26:29;;;;;;;7.30;5.80;;;16.80;99.20;;;;;;5135240;27;20160;-81
2021/10/20 06:28:55;;;;;;;7.33;5.60;;;16.80;99.20;;;;;;5135894;27;20736;-85
2021/10/20 06:31:21;;;;;;;9.07;5.53;;;16.80;99.20;;;;;;5117274;27;20190;-82
2021/10/20 06:33:47;;;;;;;7.77;5.17;;;16.80;99.40;;;;;;5115365;28;20903;-82
2021/10/20 06:36:30;;;;;;;8.07;5.40;;;16.80;99.50;;;;;;5097623;28;20262;-87
2021/10/20 06:38:56;;;;;;;10.23;5.83;;;16.80;99.70;;;;;;5115739;28;20185;-85
2021/10/20 06:41:22;;;;;;;10.60;6.70;;;16.80;99.90;;;;;;5097975;28;20702;-82
2021/10/20 06:43:47;;;;;;;12.23;7.40;;;16.80;99.90;;;;;;5116182;28;20205;-83
2021/10/20 06:46:13;;;;;;;9.20;6.33;;;16.70;99.90;;;;;;5116614;28;20781;-84
2021/10/20 06:48:39;;;;;;;12.03;7.80;;;16.70;99.90;;;;;;5119926;28;20634;-83
2021/10/20 06:51:06;;;;;;;9.30;7.13;;;16.50;99.90;;;;;;5096827;28;20183;-83
2021/10/20 06:53:32;;;;;;;11.70;7.53;;;16.50;99.90;;;;;;5115737;28;20702;-85
2021/10/20 06:56:00;;;;;;;13.03;8.13;;;16.50;99.90;;;;;;5117865;28;20171;-79
2021/10/20 06:58:26;;;;;;;13.77;8.83;;;16.50;99.90;;;;;;5117236;28;20159;-84
2021/10/20 07:00:52;;;;;;;11.17;8.23;;;16.40;99.90;;;;;;5108762;28;20206;-84
2021/10/20 07:03:17;;;;;;;12.47;8.53;;;16.30;99.90;;;;;;5115582;28;20182;-82
2021/10/20 07:05:44;;;;;;;11.07;8.87;;;16.30;99.90;;;;;;5115089;28;20174;-80
2021/10/20 07:08:10;;;;;;;12.93;8.43;;;16.40;99.90;;;;;;5096551;28;20197;-81
2021/10/20 07:10:36;;;;;;;11.27;8.23;;;16.20;99.90;;;;;;5114815;28;20257;-82
2021/10/20 07:13:03;;;;;;;11.27;7.70;;;16.20;99.90;;;;;;5099488;28;20197;-81
2021/10/20 07:15:29;;;;;;;10.20;7.57;;;16.20;99.90;;;;;;5115484;28;20216;-82
2021/10/20 07:17:54;;;;;;;10.63;8.20;;;16.20;99.90;;;;;;5119291;28;20162;-80
2021/10/20 07:20:20;;;;;;;10.43;7.10;;;16.50;99.90;;;;;;5127971;28;20639;-85
2021/10/20 07:22:46;;;;;;;11.97;7.83;;;16.30;99.90;;;;;;5105902;28;20175;-81
2021/10/20 07:25:17;;;;;;;14.60;8.23;;;16.20;99.90;;;;;;5117921;28;20399;-80
2021/10/20 07:27:42;;;;;;;12.93;8.00;;;16.30;99.90;;;;;;5114732;28;20207;-82
2021/10/20 07:30:12;;;;;;;11.50;7.67;;;16.20;99.90;;;;;;5098165;28;20199;-82
2021/10/20 07:32:59;;;;;;;9.63;7.50;;;16.10;99.90;;;;;;5099764;28;20635;-84
2021/10/20 07:35:28;;;;;;;10.93;7.47;;;16.10;99.90;;;;;;5100104;28;20285;-86
2021/10/20 07:37:54;;;;;;;12.00;7.80;;;16.20;99.90;;;;;;5113968;28;20613;-82
2021/10/20 07:40:22;;;;;;;10.17;7.50;;;16.20;99.90;;;;;;5096104;28;20252;-82
2021/10/20 07:42:47;;;;;;;10.70;7.87;;;16.20;99.90;;;;;;5113782;28;20186;-82
2021/10/20 07:45:15;;;;;;;14.60;8.07;;;16.20;99.90;;;;;;5114090;28;20166;-83
2021/10/20 07:47:45;;;;;;;11.97;8.00;;;16.20;99.90;;;;;;5113640;28;20163;-81
2021/10/20 07:50:12;;;;;;;10.37;7.83;;;16.30;99.90;;;;;;5112556;28;20190;-84
2021/10/20 07:52:38;;;;;;;10.87;7.30;;;16.30;99.90;;;;;;5094932;28;20694;-83
2021/10/20 07:55:06;;;;;;;9.73;7.37;;;16.30;99.90;;;;;;5114554;28;20665;-85
2021/10/20 07:57:32;;;;;;;8.47;7.00;;;16.30;99.90;;;;;;5114870;28;20188;-82
2021/10/20 07:59:58;;;;;;;8.90;7.70;;;16.30;99.90;;;;;;5101387;27;20551;-82
2021/10/20 08:02:23;;;;;;;9.87;7.47;;;16.30;99.90;;;;;;5116070;27;20168;-81
2021/10/20 08:04:49;;;;;;;11.17;7.33;;;16.40;99.90;;;;;;5133458;27;20223;-82
2021/10/20 08:07:15;;;;;;;11.00;7.40;;;16.40;99.90;;;;;;5133779;27;20233;-82
2021/10/20 08:09:42;;;;;;;8.80;6.80;;;16.40;99.90;;;;;;5133568;27;20170;-83
2021/10/20 08:12:08;;;;;;;9.50;6.80;;;16.60;99.90;;;;;;5115094;28;20653;-80
2021/10/20 08:14:40;;;;;;;9.93;7.00;;;16.50;99.90;;;;;;5114975;28;20240;-83
2021/10/20 08:17:05;;;;;;;8.70;7.00;;;16.40;99.90;;;;;;5111304;27;20607;-82
2021/10/20 08:19:31;;;;;;;8.57;7.33;;;16.40;99.90;;;;;;5099862;28;20182;-81
2021/10/20 08:21:57;;;;;;;8.53;6.77;;;16.60;99.90;;;;;;5102016;28;20188;-81
2021/10/20 08:24:22;;;;;;;9.47;7.07;;;16.60;99.90;;;;;;5096508;28;20173;-83
2021/10/20 08:26:48;;;;;;;8.20;6.40;;;16.70;99.90;;;;;;5078431;28;20539;-82
2021/10/20 08:29:14;;;;;;;8.33;6.00;;;16.70;99.90;;;;;;5102674;27;20225;-82
2021/10/20 08:31:40;;;;;;;8.13;6.30;;;16.70;99.90;;;;;;5112186;27;20178;-83
2021/10/20 08:34:05;;;;;;;9.23;6.53;;;16.70;99.90;;;;;;5140665;27;20210;-82
2021/10/20 08:36:31;;;;;;;9.63;7.17;;;16.70;99.90;;;;;;5123375;27;20178;-83
2021/10/20 08:38:57;;;;;;;7.50;5.83;;;16.80;99.90;;;;;;5146246;27;20193;-82
2021/10/20 08:41:24;;;;;;;8.00;5.90;;;16.80;99.90;;;;;;5131165;27;20636;-82
2021/10/20 08:43:51;;;;;;;9.70;6.03;;;16.80;99.90;;;;;;5151285;27;20231;-81
2021/10/20 08:46:22;;;;;;;7.60;6.63;;;16.80;99.90;;;;;;5148408;27;20175;-85
2021/10/20 08:48:48;;;;;;;9.73;7.03;;;16.80;99.90;;;;;;5117708;27;20178;-83
2021/10/20 08:51:16;;;;;;;11.60;6.93;;;17.00;99.90;;;;;;5120348;27;20174;-83
2021/10/20 08:53:42;;;;;;;10.50;6.77;;;16.90;99.90;;;;;;5119979;27;20199;-83
2021/10/20 08:56:07;;;;;;;10.77;6.60;;;16.90;99.90;;;;;;5114690;28;20185;-78
2021/10/20 08:58:33;;;;;;;13.33;6.70;;;17.00;99.90;;;;;;5117630;28;20175;-83
2021/10/20 09:00:59;;;;;;;10.43;6.90;;;16.90;99.90;;;;;;5115254;28;20177;-82
2021/10/20 09:03:24;;;;;;;9.17;6.87;;;16.90;99.90;;;;;;5117926;28;20508;-83
2021/10/20 09:05:50;;;;;;;10.50;6.30;;;16.90;99.90;;;;;;5118466;28;20249;-82
2021/10/20 09:08:16;;;;;;;8.67;7.10;;;16.90;99.90;;;;;;5102306;28;20188;-81
2021/10/20 09:10:46;;;;;;;9.23;6.10;;;17.10;99.90;;;;;;5105923;28;20181;-83
2021/10/20 09:13:13;;;;;;;8.07;6.87;;;17.00;99.90;;;;;;5104680;27;20167;-82
2021/10/20 09:15:38;;;;;;;10.00;7.67;;;17.00;99.90;;;;;;5138148;27;20198;-84
2021/10/20 09:18:11;;;;;;;11.20;6.63;;;17.20;99.90;;;;;;5137835;27;20166;-83
2021/10/20 09:20:46;;;;;;;11.47;7.10;;;17.30;99.90;;;;;;5117067;27;20697;-83
2021/10/20 09:23:17;;;;;;;13.00;7.27;;;17.40;99.90;;;;;;5119404;27;20616;-81
2021/10/20 09:25:44;;;;;;;8.73;7.60;;;17.40;99.90;;;;;;5157509;27;20231;-83
2021/10/20 09:28:24;;;;;;;11.40;7.50;;;17.50;99.90;;;;;;5149945;27;20189;-82
2021/10/20 09:30:51;;;;;;;10.73;7.77;;;17.40;99.90;;;;;;5119823;27;20279;-83
2021/10/20 09:33:17;;;;;;;13.57;8.23;;;17.50;99.90;;;;;;5138317;27;20173;-82
2021/10/20 09:35:43;;;;;;;10.50;6.80;;;17.60;99.90;;;;;;5118958;27;20271;-82
2021/10/20 09:38:20;;;;;;;11.60;8.30;;;17.60;99.90;;;;;;5136824;27;20257;-83
2021/10/20 09:40:48;;;;;;;10.87;8.50;;;17.70;99.90;;;;;;5140302;27;20166;-82
2021/10/20 09:43:19;;;;;;;9.37;7.07;;;17.80;99.90;;;;;;5155579;27;20174;-82
2021/10/20 09:45:46;;;;;;;10.50;7.43;;;17.80;99.90;;;;;;5140532;27;20239;-81
2021/10/20 09:48:25;;;;;;;8.93;7.47;;;17.70;99.90;;;;;;5109446;28;20616;-82
2021/10/20 09:51:08;;;;;;;11.00;8.23;;;17.80;99.90;;;;;;5122076;28;20207;-83
2021/10/20 09:53:39;;;;;;;9.30;7.43;;;17.70;99.90;;;;;;5103533;28;20193;-82
2021/10/20 09:56:32;;;;;;;9.73;7.20;;;17.80;99.90;;;;;;5103344;28;20179;-82
2021/10/20 09:58:58;;;;;;;9.80;6.67;;;17.80;99.90;;;;;;5103739;28;20202;-83
2021/10/20 10:01:26;;;;;;;9.03;7.03;;;17.80;99.90;;;;;;5098358;28;20638;-83
2021/10/20 10:03:53;;;;;;;7.73;6.60;;;17.80;99.90;;;;;;5098194;28;20193;-82
2021/10/20 10:06:20;;;;;;;8.40;7.07;;;17.90;99.90;;;;;;5098596;28;20176;-82
2021/10/20 10:08:46;;;;;;;8.57;6.83;;;17.80;99.90;;;;;;5104023;28;20178;-83
2021/10/20 10:11:13;;;;;;;7.80;6.50;;;17.70;99.90;;;;;;5099934;28;20899;-83
2021/10/20 10:14:17;;;;;;;8.80;7.30;;;17.70;99.90;;;;;;5102528;28;20215;-82
2021/10/20 10:16:45;;;;;;;9.97;6.93;;;17.60;99.90;;;;;;5118490;28;20165;-82
2021/10/20 10:19:12;;;;;;;10.90;6.47;;;17.70;99.90;;;;;;5098095;28;20173;-84
2021/10/20 10:21:41;;;;;;;9.53;6.77;;;17.70;99.90;;;;;;5097218;28;20652;-83
2021/10/20 10:24:15;;;;;;;10.60;6.60;;;17.70;99.90;;;;;;5116281;28;20600;-83
2021/10/20 10:27:16;;;;;;;7.23;5.83;;;17.80;99.90;;;;;;5097536;28;20176;-82
2021/10/20 10:29:53;;;;;;;10.37;6.90;;;17.70;99.90;;;;;;5012754;28;20173;-81
2021/10/20 10:32:21;;;;;;;8.13;6.50;;;17.70;99.90;;;;;;5102439;28;20193;-83
2021/10/20 10:34:48;;;;;;;8.50;6.17;;;17.70;99.90;;;;;;5097169;28;20213;-81
2021/10/20 10:37:33;;;;;;;7.73;6.40;;;17.70;99.90;;;;;;5096766;28;20173;-82
2021/10/20 10:40:17;;;;;;;11.13;6.97;;;17.80;99.90;;;;;;5095812;28;20576;-82
2021/10/20 10:42:48;;;;;;;8.23;6.17;;;17.80;99.90;;;;;;5096913;28;20581;-82
2021/10/20 10:45:24;;;;;;;8.40;6.10;;;17.80;99.90;;;;;;5097400;28;20170;-83
2021/10/20 10:48:08;;;;;;;8.03;6.50;;;17.80;99.90;;;;;;5096962;28;20172;-83
2021/10/20 10:50:55;;;;;;;9.73;6.70;;;17.80;99.90;;;;;;5100664;28;20537;-82
2021/10/20 10:53:29;;;;;;;7.87;6.20;;;17.60;99.90;;;;;;5104973;28;20172;-82
2021/10/20 10:56:13;;;;;;;7.37;6.07;;;17.70;99.90;;;;;;5110058;28;20230;-83
2021/10/20 10:59:02;;;;;;;8.27;6.27;;;17.80;99.90;;;;;;5102964;28;20170;-83
2021/10/20 11:01:39;;;;;;;8.37;6.40;;;17.80;99.90;;;;;;5098818;28;20514;-83
2021/10/20 11:04:19;;;;;;;7.93;6.03;;;17.80;99.90;;;;;;5099231;28;20703;-82
2021/10/20 11:06:46;;;;;;;8.73;6.23;;;17.80;99.90;;;;;;5136298;27;20173;-81
2021/10/20 11:09:21;;;;;;;7.67;6.40;;;17.90;99.90;;;;;;5114049;28;20185;-81
2021/10/20 11:11:53;;;;;;;6.83;5.50;;;17.90;99.90;;;;;;5102635;28;20261;-84
2021/10/20 11:14:28;;;;;;;6.90;5.67;;;18.00;99.90;;;;;;5097183;28;20243;-84
2021/10/20 11:17:05;;;;;;;7.83;6.00;;;18.00;99.90;;;;;;5115030;28;20163;-83
2021/10/20 11:19:31;;;;;;;7.87;5.67;;;18.00;99.90;;;;;;5096198;28;20664;-84
2021/10/20 11:21:58;;;;;;;8.10;6.53;;;18.00;99.90;;;;;;5115085;28;20249;-83
2021/10/20 11:24:24;;;;;;;8.57;5.57;;;18.00;99.90;;;;;;5096124;28;20208;-83
2021/10/20 11:26:53;;;;;;;11.20;5.60;;;18.00;99.90;;;;;;5114105;28;20194;-83
2021/10/20 11:29:20;;;;;;;8.50;6.00;;;17.90;99.90;;;;;;5095853;28;20213;-82
2021/10/20 11:31:52;;;;;;;10.40;6.53;;;17.90;99.90;;;;;;5095766;28;20184;-83
2021/10/20 11:34:25;;;;;;;10.33;6.30;;;17.90;99.90;;;;;;5113691;28;20270;-84
2021/10/20 11:36:52;;;;;;;8.27;5.90;;;18.00;99.90;;;;;;5113934;28;20172;-83
2021/10/20 11:39:29;;;;;;;7.97;5.93;;;17.90;99.90;;;;;;5114452;28;20255;-83
2021/10/20 11:41:57;;;;;;;9.17;6.27;;;17.90;99.90;;;;;;5095325;28;20196;-82
2021/10/20 11:44:28;;;;;;;8.93;5.97;;;17.90;99.90;;;;;;5113681;28;20224;-83
2021/10/20 11:46:58;;;;;;;8.07;6.27;;;18.00;99.90;;;;;;5095223;28;20225;-82
2021/10/20 11:49:25;;;;;;;7.50;6.20;;;18.00;99.90;;;;;;5096183;28;20307;-82
2021/10/20 11:51:52;;;;;;;7.33;6.30;;;18.10;99.90;;;;;;5096247;28;20626;-82
2021/10/20 11:54:21;;;;;;;8.93;6.60;;;18.10;99.90;;;;;;5099480;28;20199;-82
2021/10/20 11:56:51;;;;;;;9.67;6.57;;;18.10;99.90;;;;;;5097057;28;20192;-83
2021/10/20 11:59:21;;;;;;;7.17;5.73;;;18.10;99.90;;;;;;5101184;28;20167;-83
2021/10/20 12:01:49;;;;;;;8.40;6.23;;;18.00;99.90;;;;;;5106101;28;20588;-82
2021/10/20 12:04:17;;;;;;;11.13;6.50;;;18.10;99.90;;;;;;5116412;28;20209;-83
2021/10/20 12:06:43;;;;;;;8.57;6.87;;;18.10;99.90;;;;;;5095620;28;20201;-81
2021/10/20 12:09:14;;;;;;;10.83;6.30;;;18.10;99.90;;;;;;5090165;28;20185;-82
2021/10/20 12:11:42;;;;;;;9.57;6.77;;;18.20;99.90;;;;;;5079518;28;20243;-85
2021/10/20 12:14:09;;;;;;;8.63;6.30;;;18.30;99.90;;;;;;5087231;28;20218;-83
2021/10/20 12:16:37;;;;;;;8.37;6.70;;;18.30;99.80;;;;;;5116721;28;20195;-82
2021/10/20 12:19:10;;;;;;;9.97;7.83;;;18.30;99.90;;;;;;5109800;28;20168;-83
2021/10/20 12:21:39;;;;;;;10.90;8.80;;;18.30;99.90;;;;;;5105670;28;20523;-82
2021/10/20 12:24:06;;;;;;;8.13;6.20;;;18.30;99.90;;;;;;5099107;28;20220;-82
2021/10/20 12:26:34;;;;;;;9.80;7.33;;;18.30;99.90;;;;;;5098427;28;20172;-82
2021/10/20 12:29:08;;;;;;;9.23;6.37;;;18.40;99.90;;;;;;5099150;28;20190;-84
2021/10/20 12:31:39;;;;;;;13.03;6.83;;;18.30;99.90;;;;;;5106323;28;20196;-83
2021/10/20 12:34:05;;;;;;;8.50;6.73;;;18.40;99.90;;;;;;5103616;28;20684;-81
2021/10/20 12:36:32;;;;;;;8.63;5.90;;;18.60;99.80;;;;;;5110591;28;20568;-81
2021/10/20 12:39:00;;;;;;;9.20;6.20;;;18.60;98.80;;;;;;5109272;28;20229;-82
2021/10/20 12:41:32;;;;;;;9.43;6.50;;;18.60;98.70;;;;;;5101688;28;20202;-81
2021/10/20 12:44:02;;;;;;;9.03;6.30;;;18.70;98.90;;;;;;5097822;28;20179;-83
2021/10/20 12:46:30;;;;;;;8.37;6.30;;;18.70;98.70;;;;;;5114490;28;20165;-83
2021/10/20 12:49:00;;;;;;;9.57;6.37;;;18.70;98.60;;;;;;5099243;28;20176;-84